Nashville, TN (37221)

1:19 PM CDT on September 28, 2016 (GMT -0500)
| | Change Station

Elev -9999 ft 0.00 °N, 0.00 °E | Updated

Partly Cloudy
Partly Cloudy
81 °F
Feels Like 81 °F
N
14
Wind Variable Wind from WSW
Gusts 22 mph

Today
High -- | Low -- °F
--% Chance of Precip.
Yesterday
High -- | Low -- °F
Precip. -- in
Pressure 29.88 in
Visibility 10.0 miles
Clouds Few 16000 ft
Dew Point 49 °F
Humidity 33%
Rainfall --
Snow Depth Not available.
6:40 AM 6:35 PM
Waning Crescent, 5% visible
METAR KBNA 281753Z 21012G19KT 10SM FEW160 27/08 A2989 RMK AO2 SLP118 T02720083 10278 20111 58017
Pressure 29.88 in
Visibility 10.0 miles
Clouds Few 16000 ft
Dew Point 49 °F
Humidity 33%
Rainfall --
Snow Depth Not available.
6:40 AM 6:35 PM
Waning Crescent, 5% visible
METAR KBNA 281753Z 21012G19KT 10SM FEW160 27/08 A2989 RMK AO2 SLP118 T02720083 10278 20111 58017

10-Day Weather Forecast

Almanac

Astronomy

Sep. 28, 2016 Rise Set
Actual Time
Civil Twilight
Nautical Twilight
Astronomical Twilight
Moon
Length of Visible Light
Length of Day
Tomorrow will be .
, % of the Moon is Illuminated

Today's Extremes

State Highs State Lows

Community

WunderPhotos

Upload Photos

1,942,294 photos uploaded!

WunderBlog® & News

Nearby

Air Quality

  Air Quality AQ Index Pollutant
Not available.

Snow Depth

Station Depth Elevation

Earthquake Activity

City Distance Mag. Time & Date
Minimum magnitude displayed is 2.5.

Coastal Water Temperatures

Place Temperature

Stations

Nearby Weather Stations

Station Location Temp. Windchill Dew Point Humidity Wind Precip. Elev Updated Type
                   

Watches & Warnings

There are currently no watches in effect.